Time;durP1;ratioP1;P1;durP2;ratioP2;P2;SDS_P1;SDS_P2;PMS_P1;PMS_P2;Temp;Humidity;BMP_temperature;BMP_pressure;BME280_temperature;BME280_humidity;BME280_pressure;Samples;Min_cycle;Max_cycle;Signal;HPM_P1;HPM_P2
2022/08/05 00:00:21;;;;;;;;;;;20.80;99.90;;;;;;5094505;28;19910;-70
2022/08/05 00:02:47;;;;;;;;;;;20.80;99.90;;;;;;5076017;28;19907;-70
2022/08/05 00:05:12;;;;;;;;;;;20.80;99.90;;;;;;5093958;28;20291;-70
2022/08/05 00:07:38;;;;;;;;;;;20.80;99.90;;;;;;5076294;28;19947;-70
2022/08/05 00:10:03;;;;;;;;;;;20.80;99.90;;;;;;5076218;28;19904;-70
2022/08/05 00:12:29;;;;;;;;;;;20.70;99.90;;;;;;5075679;28;19911;-70
2022/08/05 00:14:55;;;;;;;;;;;20.70;99.90;;;;;;5093954;28;19904;-70
2022/08/05 00:17:20;;;;;;;;;;;20.60;99.90;;;;;;5075850;28;19908;-70
2022/08/05 00:19:46;;;;;;;;;;;20.50;99.90;;;;;;5076168;28;19958;-70
2022/08/05 00:22:11;;;;;;;;;;;20.40;99.90;;;;;;5094182;28;20272;-70
2022/08/05 00:24:37;;;;;;;;;;;20.20;99.90;;;;;;5094175;28;19907;-70
2022/08/05 00:27:02;;;;;;;;;;;20.10;99.90;;;;;;5075985;28;19927;-70
2022/08/05 00:29:28;;;;;;;;;;;20.10;99.90;;;;;;5075761;28;19904;-70
2022/08/05 00:31:54;;;;;;;;;;;20.10;99.90;;;;;;5094121;28;19904;-70
2022/08/05 00:34:19;;;;;;;;;;;20.20;99.90;;;;;;5076065;28;20409;-70
2022/08/05 00:36:45;;;;;;;;;;;20.10;99.90;;;;;;5075581;28;19908;-70
2022/08/05 00:39:11;;;;;;;;;;;20.10;99.90;;;;;;5093762;28;19904;-70
2022/08/05 00:41:37;;;;;;;;;;;20.10;99.90;;;;;;5075684;28;20058;-70
2022/08/05 00:44:02;;;;;;;;;;;20.10;99.90;;;;;;5093995;28;19904;-70
2022/08/05 00:46:28;;;;;;;;;;;20.10;99.90;;;;;;5075505;28;19904;-70
2022/08/05 00:48:54;;;;;;;;;;;20.00;99.90;;;;;;5075891;28;19904;-70
2022/08/05 00:51:20;;;;;;;;;;;20.00;99.90;;;;;;5075639;28;19912;-70
2022/08/05 00:53:46;;;;;;;;;;;19.90;99.90;;;;;;5075559;28;19904;-70
2022/08/05 00:56:11;;;;;;;;;;;19.90;99.90;;;;;;5093589;28;19904;-70
2022/08/05 00:58:37;;;;;;;;;;;19.90;99.90;;;;;;5075339;28;19919;-70
2022/08/05 01:01:03;;;;;;;;;;;19.80;99.90;;;;;;5093630;28;19998;-70
2022/08/05 01:03:29;;;;;;;;;;;19.80;99.90;;;;;;5093562;28;19904;-70
2022/08/05 01:05:54;;;;;;;;;;;19.70;99.90;;;;;;5093411;28;19912;-70
2022/08/05 01:08:20;;;;;;;;;;;19.70;99.90;;;;;;5093501;28;19952;-67
2022/08/05 01:10:49;;;;;;;;;;;19.70;99.90;;;;;;5093495;28;20356;-67
2022/08/05 01:13:18;;;;;;;;;;;19.60;99.90;;;;;;5093734;28;20006;-67
2022/08/05 01:15:47;;;;;;;;;;;19.60;99.90;;;;;;5076129;28;20365;-67
2022/08/05 01:18:15;;;;;;;;;;;19.60;99.90;;;;;;5075285;28;19915;-69
2022/08/05 01:20:50;;;;;;;;;;;19.60;99.90;;;;;;5075525;28;20279;-69
2022/08/05 01:23:34;;;;;;;;;;;19.50;99.90;;;;;;5075973;28;20414;-70
2022/08/05 01:26:18;;;;;;;;;;;19.30;99.90;;;;;;5079930;28;19904;-70
2022/08/05 01:28:52;;;;;;;;;;;19.10;99.90;;;;;;5078823;28;19904;-70
2022/08/05 01:31:31;;;;;;;;;;;19.10;99.90;;;;;;5097002;28;19911;-70
2022/08/05 01:34:11;;;;;;;;;;;19.10;99.90;;;;;;5097231;28;20011;-70
2022/08/05 01:36:41;;;;;;;;;;;19.10;99.90;;;;;;5078984;28;20311;-74
2022/08/05 01:39:07;;;;;;;;;;;19.20;99.90;;;;;;5097275;28;20430;-75
2022/08/05 01:41:34;;;;;;;;;;;19.20;99.90;;;;;;5077768;28;19947;-75
2022/08/05 01:44:00;;;;;;;;;;;19.20;99.90;;;;;;5095114;28;19978;-75
2022/08/05 01:46:26;;;;;;;;;;;19.20;99.90;;;;;;5077981;28;19904;-74
2022/08/05 01:48:53;;;;;;;;;;;19.20;99.90;;;;;;5077931;28;19904;-74
2022/08/05 01:51:19;;;;;;;;;;;19.20;99.90;;;;;;5095253;28;19904;-75
2022/08/05 01:53:46;;;;;;;;;;;19.20;99.90;;;;;;5076567;28;19973;-75
2022/08/05 01:56:12;;;;;;;;;;;19.20;99.90;;;;;;5076550;28;20433;-74
2022/08/05 01:58:40;;;;;;;;;;;19.10;99.90;;;;;;5094819;28;24078;-75
2022/08/05 02:01:06;;;;;;;;;;;18.90;99.90;;;;;;5094658;28;19904;-74
2022/08/05 02:03:33;;;;;;;;;;;18.70;99.90;;;;;;5095875;28;20348;-75
2022/08/05 02:05:59;;;;;;;;;;;18.60;99.90;;;;;;5094416;28;19959;-74
2022/08/05 02:08:24;;;;;;;;;;;18.50;99.90;;;;;;5076560;28;19915;-75
2022/08/05 02:10:52;;;;;;;;;;;18.40;99.90;;;;;;5094980;28;24060;-75
2022/08/05 02:13:21;;;;;;;;;;;18.40;99.90;;;;;;5076828;28;20390;-75
2022/08/05 02:15:53;;;;;;;;;;;18.40;99.90;;;;;;5094734;28;19908;-74
2022/08/05 02:18:24;;;;;;;;;;;18.40;99.90;;;;;;5095596;28;19908;-75
2022/08/05 02:20:50;;;;;;;;;;;18.40;99.90;;;;;;5095836;28;20118;-75
2022/08/05 02:23:17;;;;;;;;;;;18.50;99.90;;;;;;5077579;28;20202;-75
2022/08/05 02:25:43;;;;;;;;;;;18.50;99.90;;;;;;5095905;28;20406;-74
2022/08/05 02:28:10;;;;;;;;;;;18.40;99.90;;;;;;5096026;28;20047;-75
2022/08/05 02:30:42;;;;;;;;;;;18.40;99.90;;;;;;5077744;28;20122;-75
2022/08/05 02:33:10;;;;;;;4.95;3.75;;;18.30;99.90;;;;;;5077330;28;20514;-75
2022/08/05 02:35:36;;;;;;;;;;;18.20;99.90;;;;;;5094874;28;20497;-74
2022/08/05 02:38:02;;;;;;;;;;;18.20;99.90;;;;;;5077427;28;20486;-75
2022/08/05 02:40:29;;;;;;;;;;;18.30;99.90;;;;;;5095816;28;20468;-75
2022/08/05 02:42:55;;;;;;;4.50;3.80;;;18.30;99.90;;;;;;5077260;28;20054;-75
2022/08/05 02:45:21;;;;;;;;;;;18.40;99.90;;;;;;5077577;28;20036;-74
2022/08/05 02:47:48;;;;;;;;;;;18.50;99.90;;;;;;5077256;28;20035;-75
2022/08/05 02:50:14;;;;;;;;;;;18.60;99.90;;;;;;5095468;28;20046;-75
2022/08/05 02:52:40;;;;;;;6.45;3.90;;;18.60;99.90;;;;;;5095573;28;20053;-75
2022/08/05 02:55:07;;;;;;;;;;;18.70;99.90;;;;;;5095577;28;19904;-74
2022/08/05 02:57:34;;;;;;;5.95;3.15;;;18.70;99.90;;;;;;5095493;28;20051;-75
2022/08/05 03:00:00;;;;;;;4.80;3.60;;;18.70;99.90;;;;;;5080784;28;20035;-73
2022/08/05 03:02:32;;;;;;;4.32;3.53;;;18.70;99.90;;;;;;5079824;28;20035;-75
2022/08/05 03:05:00;;;;;;;5.05;3.45;;;18.80;99.90;;;;;;5077338;28;20036;-73
2022/08/05 03:07:26;;;;;;;;;;;18.80;99.90;;;;;;5077062;28;20039;-75
2022/08/05 03:09:52;;;;;;;;;;;18.80;99.90;;;;;;5076864;28;20039;-74
2022/08/05 03:12:34;;;;;;;4.90;3.40;;;18.80;99.90;;;;;;5076872;28;20393;-75
2022/08/05 03:15:00;;;;;;;;;;;18.90;99.90;;;;;;5076891;28;20090;-74
2022/08/05 03:17:25;;;;;;;;;;;18.80;99.90;;;;;;5076614;28;20057;-74
2022/08/05 03:19:51;;;;;;;4.30;3.20;;;18.90;99.90;;;;;;5076766;28;20519;-75
2022/08/05 03:22:17;;;;;;;4.65;3.25;;;18.90;99.90;;;;;;5076391;28;20075;-75
2022/08/05 03:24:44;;;;;;;5.60;3.30;;;18.80;99.90;;;;;;5094572;28;20046;-75
2022/08/05 03:27:11;;;;;;;4.15;3.00;;;18.80;99.90;;;;;;5076289;28;19931;-74
2022/08/05 03:29:37;;;;;;;4.77;3.40;;;18.80;99.90;;;;;;5094445;28;20048;-75
2022/08/05 03:32:04;;;;;;;4.55;3.15;;;18.80;99.90;;;;;;5076232;28;20086;-75
2022/08/05 03:34:32;;;;;;;4.40;3.40;;;18.80;99.90;;;;;;5076058;28;20031;-74
2022/08/05 03:36:58;;;;;;;4.20;2.97;;;18.80;99.90;;;;;;5094107;28;20040;-74
2022/08/05 03:39:23;;;;;;;4.45;3.15;;;18.80;99.90;;;;;;5076094;28;20499;-75
2022/08/05 03:41:49;;;;;;;5.20;3.60;;;18.70;99.90;;;;;;5094804;28;20032;-75
2022/08/05 03:44:15;;;;;;;3.70;3.20;;;18.70;99.90;;;;;;5076385;28;20062;-75
2022/08/05 03:46:40;;;;;;;3.92;3.22;;;18.70;99.90;;;;;;5093316;28;20110;-74
2022/08/05 03:49:06;;;;;;;4.55;3.35;;;18.70;99.90;;;;;;5094234;28;19954;-75
2022/08/05 03:51:37;;;;;;;4.70;3.70;;;18.60;99.90;;;;;;5094366;28;19995;-75
2022/08/05 03:54:08;;;;;;;;;;;18.50;99.90;;;;;;5075920;28;20394;-75
2022/08/05 03:56:44;;;;;;;;;;;18.50;99.90;;;;;;5093802;28;20496;-74
2022/08/05 03:59:22;;;;;;;;;;;18.50;99.90;;;;;;5093936;28;20511;-75
2022/08/05 04:01:48;;;;;;;;;;;18.40;99.90;;;;;;5094074;28;20050;-74
2022/08/05 04:04:14;;;;;;;;;;;18.40;99.90;;;;;;5075656;28;20070;-76
2022/08/05 04:06:41;;;;;;;4.40;3.50;;;18.40;99.90;;;;;;5093804;28;20036;-74
2022/08/05 04:09:07;;;;;;;;;;;18.40;99.90;;;;;;5094183;28;20103;-75
2022/08/05 04:11:35;;;;;;;8.00;3.90;;;18.50;99.90;;;;;;5093804;28;20488;-75
2022/08/05 04:14:01;;;;;;;7.00;4.20;;;18.50;99.90;;;;;;5075558;28;20028;-75
2022/08/05 04:16:27;;;;;;;7.40;4.30;;;18.50;99.90;;;;;;5075504;28;20086;-74
2022/08/05 04:18:53;;;;;;;;;;;18.50;99.90;;;;;;5074654;28;20035;-73
2022/08/05 04:21:18;;;;;;;;;;;18.50;99.90;;;;;;5075169;28;20062;-73
2022/08/05 04:23:44;;;;;;;;;;;18.50;99.90;;;;;;5093576;28;20042;-73
2022/08/05 04:26:10;;;;;;;4.10;3.40;;;18.50;99.90;;;;;;5092440;28;20047;-73
2022/08/05 04:28:36;;;;;;;;;;;18.50;99.90;;;;;;5075555;28;20055;-73
2022/08/05 04:31:02;;;;;;;;;;;18.50;99.90;;;;;;5075090;28;20124;-73
2022/08/05 04:33:29;;;;;;;5.30;3.30;;;18.40;99.90;;;;;;5092347;28;20046;-74
2022/08/05 04:35:54;;;;;;;6.50;3.40;;;18.50;99.90;;;;;;5075141;28;20047;-74
2022/08/05 04:38:20;;;;;;;6.97;4.33;;;18.50;99.90;;;;;;5093174;28;20046;-74
2022/08/05 04:40:46;;;;;;;5.90;4.30;;;18.50;99.90;;;;;;5093298;28;20063;-74
2022/08/05 04:43:11;;;;;;;8.00;4.90;;;18.50;99.90;;;;;;5093227;28;20089;-74
2022/08/05 04:45:37;;;;;;;;;;;18.50;99.90;;;;;;5074700;28;20039;-74
2022/08/05 04:48:12;;;;;;;;;;;18.50;99.90;;;;;;5093275;28;20048;-74
2022/08/05 04:50:40;;;;;;;5.60;4.40;;;18.60;99.90;;;;;;5075068;28;20561;-74
2022/08/05 04:53:07;;;;;;;5.50;3.90;;;18.50;99.90;;;;;;5091482;28;20031;-74
2022/08/05 04:55:33;;;;;;;;;;;18.60;99.90;;;;;;5075040;28;20067;-74
2022/08/05 04:57:58;;;;;;;;;;;18.60;99.90;;;;;;5093345;28;20071;-74
2022/08/05 05:00:24;;;;;;;;;;;18.60;99.90;;;;;;5096936;28;20043;-74
2022/08/05 05:02:49;;;;;;;;;;;18.60;99.90;;;;;;5079143;28;20035;-74
2022/08/05 05:05:16;;;;;;;7.00;3.90;;;18.60;99.90;;;;;;5078940;28;20047;-74
2022/08/05 05:07:42;;;;;;;4.90;3.50;;;18.60;99.90;;;;;;5097077;28;19930;-74
2022/08/05 05:10:07;;;;;;;5.20;3.78;;;18.60;99.90;;;;;;5078684;28;20591;-74
2022/08/05 05:12:33;;;;;;;4.70;3.55;;;18.70;99.90;;;;;;5079001;28;20131;-74
2022/08/05 05:14:59;;;;;;;6.50;3.90;;;18.70;99.90;;;;;;5096555;28;20028;-74
2022/08/05 05:17:25;;;;;;;8.57;4.53;;;18.70;99.90;;;;;;5096738;28;20067;-74
2022/08/05 05:19:54;;;;;;;4.97;3.90;;;18.70;99.90;;;;;;5078810;28;20039;-74
2022/08/05 05:22:20;;;;;;;6.38;4.35;;;18.70;99.90;;;;;;5096676;28;20024;-74
2022/08/05 05:24:45;;;;;;;6.28;4.75;;;18.70;99.90;;;;;;5078418;28;20548;-74
2022/08/05 05:27:11;;;;;;;7.20;4.60;;;18.80;99.90;;;;;;5096504;28;20396;-74
2022/08/05 05:29:37;;;;;;;6.60;4.70;;;18.80;99.90;;;;;;5096412;28;20543;-74
2022/08/05 05:32:03;;;;;;;5.78;4.32;;;18.80;99.90;;;;;;5096621;28;20020;-74
2022/08/05 05:34:29;;;;;;;5.20;4.05;;;18.80;99.90;;;;;;5095362;28;20031;-74
2022/08/05 05:36:54;;;;;;;8.52;5.40;;;18.80;99.90;;;;;;5077978;28;20031;-75
2022/08/05 05:39:20;;;;;;;9.73;5.20;;;18.90;99.90;;;;;;5078365;28;20111;-75
2022/08/05 05:41:46;;;;;;;10.55;6.32;;;18.90;99.90;;;;;;5096267;28;20027;-75
2022/08/05 05:44:12;;;;;;;6.35;4.85;;;19.00;99.90;;;;;;5096319;28;20024;-75
2022/08/05 05:46:37;;;;;;;6.93;4.90;;;19.00;99.90;;;;;;5077720;28;20032;-74
2022/08/05 05:49:03;;;;;;;7.32;5.07;;;19.00;99.90;;;;;;5095735;28;20024;-75
2022/08/05 05:51:29;;;;;;;6.75;5.25;;;19.10;99.90;;;;;;5077472;28;20480;-75
2022/08/05 05:53:56;;;;;;;5.88;4.97;;;19.10;99.90;;;;;;5077648;28;20024;-70
2022/08/05 05:56:21;;;;;;;10.63;5.78;;;19.20;99.90;;;;;;5095918;28;20017;-70
2022/08/05 05:58:47;;;;;;;9.88;5.13;;;19.20;99.90;;;;;;5096029;28;20485;-70
2022/08/05 06:01:13;;;;;;;7.45;5.32;;;19.30;99.90;;;;;;5096091;28;20069;-70
2022/08/05 06:03:40;;;;;;;8.43;5.35;;;19.40;99.90;;;;;;5077809;28;20027;-70
2022/08/05 06:06:06;;;;;;;6.00;4.70;;;19.40;99.90;;;;;;5077964;28;20040;-70
2022/08/05 06:08:33;;;;;;;7.57;5.63;;;19.50;99.90;;;;;;5096229;28;20071;-70
2022/08/05 06:11:00;;;;;;;11.55;6.63;;;19.50;99.90;;;;;;5094869;28;20365;-68
2022/08/05 06:13:25;;;;;;;8.68;7.07;;;19.60;99.90;;;;;;5095839;28;20400;-68
2022/08/05 06:15:51;;;;;;;11.45;7.43;;;19.70;99.90;;;;;;5095676;28;20118;-71
2022/08/05 06:18:17;;;;;;;9.32;6.82;;;19.80;99.90;;;;;;5090047;28;20040;-70
2022/08/05 06:20:42;;;;;;;11.10;6.05;;;19.90;99.90;;;;;;5075444;28;20035;-70
2022/08/05 06:23:08;;;;;;;9.13;6.03;;;20.00;99.90;;;;;;5075458;28;20451;-70
2022/08/05 06:25:34;;;;;;;9.52;6.82;;;20.00;99.90;;;;;;5075600;28;20029;-70
2022/08/05 06:27:59;;;;;;;7.97;6.55;;;20.10;99.90;;;;;;5061889;28;20084;-70
2022/08/05 06:30:26;;;;;;;6.30;5.70;;;20.20;99.90;;;;;;5066380;28;20024;-70
2022/08/05 06:32:52;;;;;;;10.00;6.30;;;20.30;99.90;;;;;;5099623;28;20023;-70
2022/08/05 06:35:18;;;;;;;11.50;7.47;;;20.40;99.90;;;;;;5077202;28;20492;-70
2022/08/05 06:37:43;;;;;;;13.07;9.80;;;20.40;99.90;;;;;;5077417;28;20134;-70
2022/08/05 06:40:10;;;;;;;12.05;8.15;;;20.50;99.90;;;;;;5115984;28;20476;-70
2022/08/05 06:42:36;;;;;;;10.88;7.72;;;20.70;99.90;;;;;;5115881;28;20392;-70
2022/08/05 06:45:02;;;;;;;10.68;7.78;;;20.70;99.90;;;;;;5109888;28;20505;-70
2022/08/05 06:47:28;;;;;;;8.77;7.15;;;20.90;99.90;;;;;;5077234;28;20056;-70
2022/08/05 06:49:54;;;;;;;9.15;7.30;;;21.00;99.90;;;;;;5095088;28;20518;-70
2022/08/05 06:52:19;;;;;;;11.20;7.65;;;21.10;99.90;;;;;;5075863;28;20052;-70
2022/08/05 06:54:45;;;;;;;10.75;8.70;;;21.20;99.90;;;;;;5076643;28;20055;-70
2022/08/05 06:57:13;;;;;;;11.88;8.80;;;21.40;99.90;;;;;;5076673;28;20035;-70
2022/08/05 06:59:39;;;;;;;11.80;8.82;;;21.50;99.90;;;;;;5095121;28;20028;-70
2022/08/05 07:02:06;;;;;;;12.70;9.45;;;21.60;99.90;;;;;;5094804;28;20020;-70
2022/08/05 07:04:31;;;;;;;12.40;9.18;;;21.70;99.90;;;;;;5094896;28;20031;-70
2022/08/05 07:06:57;;;;;;;19.05;8.50;;;21.80;99.90;;;;;;5094804;28;20384;-70
2022/08/05 07:09:23;;;;;;;10.38;9.30;;;21.80;99.90;;;;;;5094730;28;20016;-70
2022/08/05 07:11:49;;;;;;;10.73;9.25;;;21.90;99.90;;;;;;5075932;28;20024;-71
2022/08/05 07:16:59;;;;;;;12.47;9.77;;;22.00;99.90;;;;;;5074303;28;20031;-70
2022/08/05 07:19:29;;;;;;;10.63;8.73;;;22.00;99.90;;;;;;5074352;28;20130;-70
2022/08/05 07:21:55;;;;;;;10.45;8.30;;;22.10;99.90;;;;;;5056126;28;20072;-70
2022/08/05 07:24:22;;;;;;;8.48;7.38;;;22.20;99.90;;;;;;5074197;28;19911;-70
2022/08/05 07:26:48;;;;;;;7.53;6.33;;;22.30;99.90;;;;;;5074113;28;20085;-70
2022/08/05 07:29:14;;;;;;;7.75;6.70;;;22.40;99.90;;;;;;5056754;28;20021;-70
2022/08/05 07:31:41;;;;;;;9.10;7.10;;;22.50;99.90;;;;;;5056346;28;19904;-70
2022/08/05 07:34:07;;;;;;;8.50;6.90;;;22.60;99.90;;;;;;5073871;28;20046;-70
2022/08/05 07:36:33;;;;;;;8.90;7.40;;;22.80;99.90;;;;;;5056380;28;20047;-70
2022/08/05 07:39:04;;;;;;;7.90;6.30;;;22.90;99.90;;;;;;5074760;28;20051;-76
2022/08/05 07:41:30;;;;;;;;;;;23.00;99.90;;;;;;5056134;28;20021;-76
2022/08/05 07:43:57;;;;;;;9.03;7.10;;;23.20;99.90;;;;;;5056101;28;20038;-76
2022/08/05 07:46:24;;;;;;;7.77;6.60;;;23.30;99.90;;;;;;5055905;28;20048;-76
2022/08/05 07:48:50;;;;;;;9.17;6.40;;;23.40;99.90;;;;;;5074115;28;20024;-76
2022/08/05 07:51:16;;;;;;;7.10;6.00;;;23.60;99.90;;;;;;5056152;28;20402;-77
2022/08/05 07:53:42;;;;;;;10.20;6.07;;;23.80;99.90;;;;;;5074031;28;20480;-76
2022/08/05 07:56:08;;;;;;;8.85;5.95;;;24.00;99.90;;;;;;5055695;28;20086;-76
2022/08/05 07:58:33;;;;;;;6.50;5.70;;;24.20;99.90;;;;;;5073664;28;20032;-76
2022/08/05 08:00:59;;;;;;;;;;;24.30;99.90;;;;;;5073844;28;20462;-76
2022/08/05 08:03:24;;;;;;;;;;;24.50;99.90;;;;;;5055546;28;20032;-75
2022/08/05 08:05:51;;;;;;;;;;;24.70;99.90;;;;;;5055392;28;20044;-76
2022/08/05 08:08:16;;;;;;;;;;;24.80;99.90;;;;;;5055720;28;20036;-76
2022/08/05 08:10:42;;;;;;;;;;;24.90;99.60;;;;;;5073548;28;20093;-76
2022/08/05 08:13:07;;;;;;;;;;;25.10;99.30;;;;;;5073567;28;20051;-76
2022/08/05 08:15:33;;;;;;;;;;;25.20;98.60;;;;;;5055683;28;20384;-75
2022/08/05 08:17:58;;;;;;;;;;;25.40;98.20;;;;;;5073696;28;20537;-76
2022/08/05 08:20:24;;;;;;;;;;;25.50;98.00;;;;;;5073249;28;20043;-76
2022/08/05 08:22:54;;;;;;;;;;;25.60;97.40;;;;;;5073654;28;20095;-76
2022/08/05 08:25:19;;;;;;;;;;;25.70;97.60;;;;;;5073189;28;20039;-76
2022/08/05 08:27:45;;;;;;;;;;;25.80;97.60;;;;;;5073146;28;20073;-75
2022/08/05 08:30:11;;;;;;;;;;;25.90;97.30;;;;;;5054567;28;20045;-75
2022/08/05 08:32:37;;;;;;;;;;;26.10;97.30;;;;;;5054005;28;20123;-76
2022/08/05 08:35:03;;;;;;;;;;;26.30;96.00;;;;;;5080171;28;24107;-76
2022/08/05 08:37:29;;;;;;;;;;;26.40;96.60;;;;;;5074176;28;20039;-76
2022/08/05 08:39:54;;;;;;;;;;;26.50;95.50;;;;;;5070887;28;19908;-76
2022/08/05 08:42:20;;;;;;;;;;;26.70;96.10;;;;;;5071633;28;19904;-76
2022/08/05 08:44:46;;;;;;;;;;;26.80;95.50;;;;;;5053540;28;19911;-76
2022/08/05 08:47:13;;;;;;;;;;;26.90;95.70;;;;;;5053620;28;19957;-76
2022/08/05 08:49:42;;;;;;;;;;;27.10;95.60;;;;;;5071547;28;19955;-76
2022/08/05 08:52:12;;;;;;;;;;;27.30;95.30;;;;;;5075359;28;25120;-76
2022/08/05 08:54:37;;;;;;;;;;;27.40;94.50;;;;;;5091961;28;19919;-76
2022/08/05 08:57:06;;;;;;;;;;;27.50;95.20;;;;;;5074890;28;19958;-76
2022/08/05 08:59:32;;;;;;;;;;;27.60;94.80;;;;;;5092474;28;19911;-76
2022/08/05 09:01:58;;;;;;;;;;;27.70;93.20;;;;;;5074401;28;19907;-76
2022/08/05 09:04:25;;;;;;;;;;;27.80;92.90;;;;;;5074414;28;20375;-76
2022/08/05 09:06:50;;;;;;;;;;;27.90;92.90;;;;;;5092352;28;20032;-73
2022/08/05 09:09:16;;;;;;;;;;;27.90;92.60;;;;;;5075139;28;20429;-73
2022/08/05 09:11:41;;;;;;;;;;;28.00;93.10;;;;;;5075318;28;20387;-74
2022/08/05 09:14:07;;;;;;;;;;;28.10;92.90;;;;;;5093799;28;19904;-73
2022/08/05 09:16:33;;;;;;;;;;;28.20;92.70;;;;;;5075277;28;19927;-73
2022/08/05 09:18:58;;;;;;;;;;;28.30;93.10;;;;;;5093407;28;19915;-73
2022/08/05 09:21:27;;;;;;;;;;;28.50;92.50;;;;;;5093452;28;19904;-74
2022/08/05 09:24:07;;;;;;;;;;;28.70;92.20;;;;;;5093573;28;20371;-73
2022/08/05 09:26:33;;;;;;;;;;;28.90;91.30;;;;;;5075426;28;19904;-73
2022/08/05 09:29:03;;;;;;;;;;;29.00;91.40;;;;;;5075743;28;19911;-73
2022/08/05 09:31:29;;;;;;;;;;;29.10;91.30;;;;;;5075557;28;19950;-73
2022/08/05 09:33:59;;;;;;;;;;;29.20;89.70;;;;;;5075756;28;19904;-73
2022/08/05 09:36:37;;;;;;;;;;;29.30;89.10;;;;;;5075118;28;19911;-73
2022/08/05 09:39:04;;;;;;;;;;;29.50;88.90;;;;;;5075150;28;19909;-73
2022/08/05 09:41:30;;;;;;;;;;;29.60;88.90;;;;;;5093343;28;19908;-73
2022/08/05 09:43:56;;;;;;;;;;;29.70;90.10;;;;;;5075371;28;19904;-72
2022/08/05 09:46:24;;;;;;;;;;;29.70;87.40;;;;;;5077228;28;19908;-73
2022/08/05 09:48:51;;;;;;;;;;;29.90;84.70;;;;;;5078674;28;19904;-74
2022/08/05 09:51:16;;;;;;;;;;;30.00;87.00;;;;;;5096808;28;20275;-73
2022/08/05 09:53:51;;;;;;;;;;;30.10;83.10;;;;;;5078474;28;19904;-73
2022/08/05 09:56:28;;;;;;;;;;;30.10;81.70;;;;;;5078523;28;19904;-73
2022/08/05 09:58:56;;;;;;;;;;;30.10;79.30;;;;;;5078442;28;20295;-73
2022/08/05 10:01:22;;;;;;;;;;;30.20;79.10;;;;;;5097117;28;19904;-72
2022/08/05 10:04:03;;;;;;;;;;;30.30;78.00;;;;;;5096614;28;19957;-73
2022/08/05 10:06:29;;;;;;;;;;;30.50;79.10;;;;;;5096488;28;19912;-73
2022/08/05 10:08:55;;;;;;;;;;;30.60;78.20;;;;;;5078334;28;19957;-73
2022/08/05 10:11:21;;;;;;;;;;;30.70;74.80;;;;;;5096633;28;19904;-73
2022/08/05 10:13:46;;;;;;;;;;;30.80;71.90;;;;;;5078594;28;19910;-73
2022/08/05 10:16:31;;;;;;;;;;;30.90;73.70;;;;;;5096557;28;20020;-73
2022/08/05 10:18:57;;;;;;;;;;;31.00;75.30;;;;;;5096162;28;19915;-73
2022/08/05 10:21:23;;;;;;;;;;;31.10;73.60;;;;;;5096510;28;20007;-73
2022/08/05 10:23:49;;;;;;;;;;;31.20;71.80;;;;;;5096170;28;20371;-73
2022/08/05 10:26:14;;;;;;;;;;;31.30;68.80;;;;;;5077658;28;19904;-71
2022/08/05 10:28:41;;;;;;;;;;;31.30;69.50;;;;;;5094757;28;19949;-72
2022/08/05 10:31:07;;;;;;;;;;;31.40;69.70;;;;;;5077925;28;20320;-75
2022/08/05 10:33:33;;;;;;;;;;;31.40;65.70;;;;;;5096148;28;19904;-75
2022/08/05 10:35:59;;;;;;;;;;;31.40;66.90;;;;;;5076217;28;19908;-73
2022/08/05 10:38:26;;;;;;;;;;;31.40;68.80;;;;;;5077447;28;19915;-72
2022/08/05 10:41:04;;;;;;;;;;;31.40;67.00;;;;;;5077703;28;20353;-73
2022/08/05 10:43:43;;;;;;;;;;;31.30;66.90;;;;;;5095554;28;20344;-72
2022/08/05 10:46:12;;;;;;;;;;;31.20;64.80;;;;;;5076684;28;20390;-72
2022/08/05 10:48:38;;;;;;;;;;;31.20;65.40;;;;;;5076655;28;19947;-72
2022/08/05 10:51:04;;;;;;;;;;;31.20;64.50;;;;;;5075964;28;19911;-72
2022/08/05 10:53:37;;;;;;;;;;;31.10;64.20;;;;;;5077107;28;19999;-71
2022/08/05 10:56:05;;;;;;;;;;;31.00;64.90;;;;;;5075551;28;19950;-72
2022/08/05 10:58:30;;;;;;;;;;;30.90;64.90;;;;;;5076978;28;19908;-72
2022/08/05 11:00:56;;;;;;;;;;;30.80;64.10;;;;;;5095474;28;20021;-70
2022/08/05 11:03:21;;;;;;;;;;;30.70;63.90;;;;;;5077083;28;19904;-72
2022/08/05 11:06:07;;;;;;;;;;;30.60;64.70;;;;;;5094574;28;20014;-71
2022/08/05 11:08:33;;;;;;;;;;;30.60;65.90;;;;;;5094864;28;19957;-72
2022/08/05 11:11:17;;;;;;;;;;;30.60;64.80;;;;;;5094905;28;19904;-72
2022/08/05 11:13:43;;;;;;;;;;;30.50;65.50;;;;;;5076975;28;20353;-72
2022/08/05 11:16:20;;;;;;;;;;;30.40;65.70;;;;;;5076922;28;19912;-71
2022/08/05 11:18:45;;;;;;;;;;;30.20;65.00;;;;;;5076635;28;19908;-71
2022/08/05 11:21:29;;;;;;;;;;;30.10;65.20;;;;;;5076388;28;20285;-72
2022/08/05 11:23:55;;;;;;;;;;;30.00;64.60;;;;;;5076564;28;19904;-71
2022/08/05 11:26:21;;;;;;;;;;;30.00;65.30;;;;;;5094760;28;20245;-72
2022/08/05 11:28:48;;;;;;;;;;;30.10;66.10;;;;;;5094661;28;19955;-70
2022/08/05 11:31:14;;;;;;;;;;;30.40;65.80;;;;;;5094590;28;19953;-72
2022/08/05 11:33:45;;;;;;;;;;;30.60;65.00;;;;;;5076742;28;19991;-71
2022/08/05 11:36:12;;;;;;;;;;;30.90;64.30;;;;;;5070315;28;20314;-72
2022/08/05 11:38:38;;;;;;;;;;;31.00;63.00;;;;;;5094406;28;20288;-72
2022/08/05 11:41:04;;;;;;;;;;;31.00;64.50;;;;;;5094557;28;19911;-70
2022/08/05 11:43:30;;;;;;;;;;;31.00;65.20;;;;;;5076079;28;20287;-70
2022/08/05 11:45:56;;;;;;;;;;;31.10;65.60;;;;;;5076111;28;19911;-73
2022/08/05 11:48:21;;;;;;;;;;;31.00;64.60;;;;;;5094184;28;19904;-72
2022/08/05 11:50:48;;;;;;;;;;;31.10;62.60;;;;;;5094013;28;19937;-72
2022/08/05 11:53:14;;;;;;;;;;;31.20;62.30;;;;;;5094236;28;19904;-72
2022/08/05 11:55:56;;;;;;;;;;;31.20;64.10;;;;;;5076214;28;20272;-71
2022/08/05 11:58:40;;;;;;;;;;;31.20;62.80;;;;;;5094040;28;20013;-72
2022/08/05 12:01:08;;;;;;;;;;;31.20;63.60;;;;;;5073620;28;20283;-72
2022/08/05 12:03:46;;;;;;;;;;;31.30;65.90;;;;;;5073784;28;20289;-71
2022/08/05 12:06:13;;;;;;;;;;;31.40;61.70;;;;;;5075345;28;19947;-72
2022/08/05 12:08:52;;;;;;;;;;;31.50;60.50;;;;;;5093175;28;20275;-71
2022/08/05 12:11:19;;;;;;;;;;;31.50;62.30;;;;;;5070517;28;19916;-71
2022/08/05 12:13:52;;;;;;;;;;;31.40;62.30;;;;;;5086370;28;19904;-72
2022/08/05 12:16:18;;;;;;;;;;;31.50;63.40;;;;;;5092089;28;19955;-71
2022/08/05 12:18:46;;;;;;;;;;;31.50;60.20;;;;;;5087013;28;20257;-70
2022/08/05 12:21:13;;;;;;;;;;;31.60;61.90;;;;;;5091475;28;19909;-71
2022/08/05 12:23:38;;;;;;;;;;;31.60;60.80;;;;;;5074085;28;20310;-69
2022/08/05 12:26:04;;;;;;;;;;;31.70;60.90;;;;;;5093860;28;20003;-69
2022/08/05 12:28:31;;;;;;;;;;;31.60;59.50;;;;;;5093867;28;19995;-68
2022/08/05 12:30:57;;;;;;;;;;;31.60;59.90;;;;;;5071341;28;19962;-68
2022/08/05 12:33:23;;;;;;;;;;;31.60;59.20;;;;;;5093636;28;20368;-68
2022/08/05 12:35:49;;;;;;;;;;;31.50;59.70;;;;;;5075445;28;19911;-70
2022/08/05 12:38:14;;;;;;;;;;;31.50;57.80;;;;;;5092474;28;19908;-68
2022/08/05 12:40:40;;;;;;;;;;;31.40;59.70;;;;;;5072598;28;19908;-68
2022/08/05 12:43:06;;;;;;;;;;;31.30;59.70;;;;;;5074884;28;19904;-68
2022/08/05 12:45:31;;;;;;;;;;;31.20;58.80;;;;;;5073209;28;19915;-67
2022/08/05 12:47:57;;;;;;;;;;;31.20;58.70;;;;;;5093415;28;19999;-68
2022/08/05 12:50:22;;;;;;;;;;;31.20;61.50;;;;;;5075475;28;19904;-69
2022/08/05 12:52:55;;;;;;;;;;;31.20;61.60;;;;;;5075131;28;19908;-69
2022/08/05 12:55:22;;;;;;;;;;;31.10;62.60;;;;;;5075380;28;19911;-67
2022/08/05 12:57:48;;;;;;;;;;;31.20;60.60;;;;;;5075288;28;19912;-69
2022/08/05 13:00:24;;;;;;;;;;;31.10;60.30;;;;;;5093439;28;19904;-67
2022/08/05 13:02:51;;;;;;;;;;;31.10;61.40;;;;;;5075600;28;19946;-68
2022/08/05 13:05:16;;;;;;;;;;;30.90;60.40;;;;;;5075391;28;19916;-68
2022/08/05 13:07:44;;;;;;;;;;;30.60;59.60;;;;;;5093329;28;20383;-68
2022/08/05 13:10:10;;;;;;;;;;;30.50;61.30;;;;;;5090846;28;20424;-69
2022/08/05 13:12:40;;;;;;;;;;;30.70;62.70;;;;;;5086882;28;20373;-70
2022/08/05 13:15:08;;;;;;;;;;;30.80;59.90;;;;;;5070570;28;19908;-68
2022/08/05 13:17:34;;;;;;;;;;;30.90;60.30;;;;;;5072248;28;19912;-68
2022/08/05 13:20:00;;;;;;;;;;;30.90;59.50;;;;;;5077206;28;19910;-68
2022/08/05 13:22:26;;;;;;;;;;;30.70;59.90;;;;;;5096948;28;19918;-68
2022/08/05 13:24:51;;;;;;;;;;;30.50;59.40;;;;;;5079187;28;19904;-67
2022/08/05 13:27:43;;;;;;;;;;;30.30;58.40;;;;;;5096080;28;19908;-69
2022/08/05 13:30:10;;;;;;;;;;;30.30;60.20;;;;;;5073462;28;19903;-67
2022/08/05 13:32:35;;;;;;;;;;;30.30;59.80;;;;;;5101837;28;19908;-69
2022/08/05 13:35:01;;;;;;;;;;;30.20;58.60;;;;;;5097852;28;19910;-68
2022/08/05 13:37:27;;;;;;;;;;;30.30;59.60;;;;;;5079843;28;19913;-69
2022/08/05 13:39:52;;;;;;;;;;;30.40;59.40;;;;;;5091414;28;20417;-69
2022/08/05 13:42:18;;;;;;;;;;;30.50;58.60;;;;;;5096767;28;19915;-70
2022/08/05 13:44:44;;;;;;;;;;;30.60;58.20;;;;;;5078932;28;19990;-70
2022/08/05 13:47:09;;;;;;;;;;;30.50;57.70;;;;;;5096638;28;20287;-70
2022/08/05 13:49:35;;;;;;;;;;;30.40;59.00;;;;;;5096273;28;20459;-70